This is the latest recevied weather packets stored in our database for station/object DL1SEW-6. If no packets are shown the sender has not sent any weather packets the latest 1 day(s).
| Time | Temp. | Humidity | Pressure | Rain* | Wind** | Luminosity | Snow |
|---|---|---|---|---|---|---|---|
| 1836274520 | 15° C | 84% | 1020.7 hPa | 0 mm | 0 m/s | 0 W/m² | - |
| 1836274370 | 14.44° C | 85% | 1020.8 hPa | 0 mm | 0 m/s | 0 W/m² | - |
| 1778030705 | 8.33° C | 86% | 1006.9 hPa | 0 mm | 0 m/s | 0 W/m² | - |
| 1778029804 | 8.33° C | 85% | 1006.9 hPa | 0 mm | 0 m/s | 0 W/m² | - |
| 1778028904 | 8.33° C | 85% | 1006.7 hPa | 0 mm | 0 m/s | 0 W/m² | - |
| 1778028004 | 8.89° C | 85% | 1006.6 hPa | 0 mm | 0 m/s | 0 W/m² | - |
| 1778027105 | 9.44° C | 83% | 1006.9 hPa | 0 mm | 0 m/s | 0 W/m² | - |
| 1778026204 | 9.44° C | 83% | 1007.1 hPa | 0 mm | 0 m/s | 0 W/m² | - |
| 1778025304 | 10° C | 83% | 1007.2 hPa | 0 mm | 0 m/s | 0 W/m² | - |
| 1778024408 | 10° C | 82% | 1007.3 hPa | 0 mm | 0 m/s | 0 W/m² | - |
| 1778023508 | 10° C | 82% | 1007.6 hPa | 0 mm | 0 m/s | 0 W/m² | - |
| 1778022608 | 10.56° C | 82% | 1007.7 hPa | 0 mm | 0 m/s | 0 W/m² | - |
| 1778021709 | 10.56° C | 82% | 1007.6 hPa | 0 mm | 0 m/s | 0 W/m² | - |
| 1778020808 | 10.56° C | 82% | 1007.6 hPa | 0 mm | 0 m/s | 0 W/m² | - |
| 1778019909 | 10.56° C | 82% | 1007.6 hPa | 0 mm | 0 m/s | 0 W/m² | - |
| 1778019008 | 10.56° C | 83% | 1007.5 hPa | 0 mm | 0 m/s | 0 W/m² | - |
| 1778018107 | 10.56° C | 83% | 1008.5 hPa | 0 mm | 0 m/s | 0 W/m² | - |
| 1778017209 | 11.11° C | 83% | 1008.6 hPa | 0 mm | 0 m/s | 0 W/m² | - |
| 1778016306 | 11.11° C | 83% | 1008.7 hPa | 0 mm | 0 m/s | 0 W/m² | - |
| 1778015407 | 11.11° C | 84% | 1008.7 hPa | 0 mm | 0 m/s | 0 W/m² | - |
| 1778014508 | 10.56° C | 84% | 1008.5 hPa | 0 mm | 0.45 m/s, 156° | 0 W/m² | - |
| 1778013606 | 10.56° C | 84% | 1008.4 hPa | 0 mm | 0 m/s | 0 W/m² | - |
| 1778012706 | 10.56° C | 84% | 1008.3 hPa | 0 mm | 0 m/s | 0 W/m² | - |
| 1778011807 | 11.11° C | 83% | 1008 hPa | 0 mm | 0 m/s | 0 W/m² | - |
| 1778010905 | 11.67° C | 83% | 1007.8 hPa | 0 mm | 0 m/s | 0 W/m² | - |
* Rain latest hour (hover to see other rain measurements)
** Current wind speed in m/s (hover to see current wind gust speed)